createdAt,value
2022-11-21T22:13:23.328Z,17.90
2022-11-21T22:15:55.450Z,17.75
2022-11-21T22:18:23.307Z,18.25
2022-11-21T22:20:51.699Z,18.44
2022-11-21T22:23:20.771Z,18.55
2022-11-21T22:25:48.866Z,18.78
2022-11-21T22:28:16.583Z,18.76
2022-11-21T22:30:54.041Z,19.07
2022-11-21T22:33:21.832Z,19.16
2022-11-21T22:35:50.141Z,19.11
2022-11-21T22:38:18.358Z,19.24
2022-11-21T22:40:49.325Z,19.37
2022-11-21T22:43:17.105Z,19.44
2022-11-21T22:45:45.540Z,19.22
2022-11-21T22:48:14.729Z,19.32
2022-11-21T22:50:45.969Z,19.29
2022-11-21T22:53:13.687Z,19.47
2022-11-21T22:55:41.427Z,19.42
2022-11-21T22:58:09.205Z,19.44
2022-11-21T23:00:36.961Z,19.09
2022-11-21T23:03:04.696Z,18.84
2022-11-21T23:05:32.440Z,19.41
2022-11-21T23:08:00.336Z,19.41
2022-11-21T23:10:28.107Z,19.46
2022-11-21T23:12:55.897Z,19.14
2022-11-21T23:15:23.517Z,19.44
2022-11-21T23:17:52.731Z,19.29
2022-11-21T23:20:20.397Z,19.35
2022-11-21T23:22:48.143Z,19.56
2022-11-21T23:25:16.630Z,19.50
2022-11-21T23:27:44.393Z,19.39
2022-11-21T23:30:12.523Z,19.30
2022-11-21T23:32:40.371Z,19.24
2022-11-21T23:35:08.736Z,19.17
2022-11-21T23:37:36.454Z,19.06
2022-11-21T23:40:04.699Z,19.16
2022-11-21T23:42:32.459Z,19.08
2022-11-21T23:45:01.446Z,19.34
2022-11-21T23:47:29.188Z,19.08
2022-11-21T23:49:56.910Z,19.31
2022-11-21T23:52:24.778Z,19.19
2022-11-21T23:54:56.035Z,19.22
2022-11-21T23:57:24.054Z,19.02
2022-11-21T23:59:51.815Z,19.31
